Cala Piccola — PJBZ — position and weather

sailwx.info

Track history (hours):
 
Tides and Currents Weather Stations Pressure Air Temp Water Temp Dewpoint Dewpoint Depression Visibility Wind Speed Wind Dir Waves Ship Positions

Cala Piccola

Last reported at 2017-Nov-15 08:15 UTC. Time now 2017-Nov-21 13:36 UTC.
Position N 34°06' E 134°56'.

Length 137 m; draft 6.9 m.

Type: Cargo ship. MMSI: 30637000.

Date/timePositionNaut miles runAvg speedWind from/ knotsBaromVisibWave heightAir tempDewpointWater temp
2017-Nov-15 08:15N 34°06' E 134°56'416.4
2017-Nov-15 08:00N 34°10' E 134°57'1315.3
2017-Nov-15 07:10N 34°22' E 134°60'213.7
2017-Nov-15 06:59N 34°24' E 135°02'714.9
2017-Nov-15 06:30N 34°28' E 135°09'715.0
2017-Nov-15 06:00N 34°34' E 135°14'612.1
2017-Nov-15 05:30N 34°40' E 135°15'1 2.8
2017-Nov-15 04:58N 34°40' E 135°13'0 0.0
2017-Nov-15 04:28N 34°40' E 135°13'0 0.0
2017-Nov-15 03:52N 34°40' E 135°13'0 0.0
2017-Nov-15 03:16N 34°40' E 135°13'0 0.0
2017-Nov-15 02:40N 34°40' E 135°13'0 0.0
2017-Nov-15 02:22N 34°40' E 135°13'0 0.0
2017-Nov-15 01:58N 34°40' E 135°13'0 0.0
2017-Nov-15 01:28N 34°40' E 135°13'0 0.0
2017-Nov-15 00:58N 34°40' E 135°13'0 0.0
2017-Nov-15 00:22N 34°40' E 135°13'0 0.0
2017-Nov-14 23:58N 34°40' E 135°13'0 0.0
2017-Nov-14 23:28N 34°40' E 135°13'0 0.0
2017-Nov-14 22:58N 34°40' E 135°13'0 0.0
2017-Nov-14 22:29N 34°40' E 135°13'1 1.6
2017-Nov-14 22:00N 34°41' E 135°14'3 5.0
2017-Nov-14 21:30N 34°39' E 135°16'2 2.8
2017-Nov-14 20:56N 34°37' E 135°15'0 0.0
2017-Nov-14 20:26N 34°37' E 135°15'0 0.0
2017-Nov-14 19:57N 34°37' E 135°15'0 0.1
2017-Nov-14 19:20N 34°37' E 135°15'0 0.0
2017-Nov-14 18:56N 34°37' E 135°15'0 0.1
2017-Nov-14 18:26N 34°37' E 135°15'0 0.0
2017-Nov-14 17:56N 34°37' E 135°15'0 0.0
2017-Nov-14 17:26N 34°37' E 135°15'0 0.1
2017-Nov-14 16:56N 34°37' E 135°15'0 0.1
2017-Nov-14 16:26N 34°37' E 135°15'0 0.1
2017-Nov-14 15:50N 34°37' E 135°15'0 0.0
2017-Nov-14 15:26N 34°37' E 135°15'0 0.0
2017-Nov-14 14:56N 34°37' E 135°15'0 0.0
2017-Nov-14 14:26N 34°37' E 135°15'0 0.0
2017-Nov-14 13:56N 34°37' E 135°15'0 0.0
2017-Nov-14 13:26N 34°37' E 135°15'0 0.1
2017-Nov-14 12:56N 34°37' E 135°15'0 0.0
2017-Nov-14 12:26N 34°37' E 135°15'0 0.1
2017-Nov-14 11:38N 34°37' E 135°15'0 0.0
2017-Nov-14 11:20N 34°37' E 135°15'0 0.0
2017-Nov-14 10:56N 34°37' E 135°15'0 0.0
2017-Nov-14 10:26N 34°37' E 135°15'0 0.0
2017-Nov-14 09:50N 34°37' E 135°15'0 0.0
2017-Nov-14 09:26N 34°37' E 135°15'0 0.0
2017-Nov-14 08:50N 34°37' E 135°15'0 0.1
2017-Nov-14 08:15N 34°37' E 135°15'0 0.7
2017-Nov-14 08:00N 34°37' E 135°15'5 9.1
2017-Nov-14 07:30N 34°33' E 135°14'713.5
2017-Nov-14 07:00N 34°27' E 135°09'914.7
2017-Nov-14 06:22N 34°20' E 135°02'514.4
2017-Nov-14 06:00N 34°15' E 134°59'715.0
2017-Nov-14 05:30N 34°08' E 134°59'252 9.1
2017-Nov-13 01:56N 35°35' E 139°47'0 0.0
2017-Nov-13 01:26N 35°35' E 139°47'0 0.0
2017-Nov-13 00:50N 35°35' E 139°47'0 0.0
2017-Nov-13 00:26N 35°35' E 139°47'0 0.0
2017-Nov-12 23:56N 35°35' E 139°47'0 0.0
2017-Nov-12 23:26N 35°35' E 139°47'0 0.0
2017-Nov-12 23:00N 35°35' E 139°47'1 2.4
2017-Nov-12 22:30N 35°35' E 139°48'4 8.5
2017-Nov-12 22:00N 35°32' E 139°52'4 8.6
2017-Nov-12 21:30N 35°28' E 139°51'5 9.6
2017-Nov-12 21:00N 35°25' E 139°47'611.7
2017-Nov-12 20:30N 35°19' E 139°44'510.5
2017-Nov-12 20:00N 35°14' E 139°47'611.0
2017-Nov-12 19:30N 35°09' E 139°47'611.4
2017-Nov-12 19:00N 35°04' E 139°44'612.6
2017-Nov-12 18:30N 34°58' E 139°41'713.2
2017-Nov-12 18:00N 34°52' E 139°38'  
Track history (hours):
 
Tides and Currents Weather Stations Pressure Air Temp Water Temp Dewpoint Dewpoint Depression Visibility Wind Speed Wind Dir Waves Ship Positions

Cala Piccola

Last reported at 2017-Nov-15 08:15 UTC. Time now 2017-Nov-21 13:36 UTC.
Position N 34°06' E 134°56'.

Length 137 m; draft 6.9 m.

Type: Cargo ship. MMSI: 30637000.

Date/timePositionNaut miles runAvg speedWind from/ knotsBaromVisibWave heightAir tempDewpointWater temp
2017-Nov-15 08:15N 34°06' E 134°56'416.4
2017-Nov-15 08:00N 34°10' E 134°57'1315.3
2017-Nov-15 07:10N 34°22' E 134°60'213.7
2017-Nov-15 06:59N 34°24' E 135°02'714.9
2017-Nov-15 06:30N 34°28' E 135°09'715.0
2017-Nov-15 06:00N 34°34' E 135°14'612.1
2017-Nov-15 05:30N 34°40' E 135°15'1 2.8
2017-Nov-15 04:58N 34°40' E 135°13'0 0.0
2017-Nov-15 04:28N 34°40' E 135°13'0 0.0
2017-Nov-15 03:52N 34°40' E 135°13'0 0.0
2017-Nov-15 03:16N 34°40' E 135°13'0 0.0
2017-Nov-15 02:40N 34°40' E 135°13'0 0.0
2017-Nov-15 02:22N 34°40' E 135°13'0 0.0
2017-Nov-15 01:58N 34°40' E 135°13'0 0.0
2017-Nov-15 01:28N 34°40' E 135°13'0 0.0
2017-Nov-15 00:58N 34°40' E 135°13'0 0.0
2017-Nov-15 00:22N 34°40' E 135°13'0 0.0
2017-Nov-14 23:58N 34°40' E 135°13'0 0.0
2017-Nov-14 23:28N 34°40' E 135°13'0 0.0
2017-Nov-14 22:58N 34°40' E 135°13'0 0.0
2017-Nov-14 22:29N 34°40' E 135°13'1 1.6
2017-Nov-14 22:00N 34°41' E 135°14'3 5.0
2017-Nov-14 21:30N 34°39' E 135°16'2 2.8
2017-Nov-14 20:56N 34°37' E 135°15'0 0.0
2017-Nov-14 20:26N 34°37' E 135°15'0 0.0
2017-Nov-14 19:57N 34°37' E 135°15'0 0.1
2017-Nov-14 19:20N 34°37' E 135°15'0 0.0
2017-Nov-14 18:56N 34°37' E 135°15'0 0.1
2017-Nov-14 18:26N 34°37' E 135°15'0 0.0
2017-Nov-14 17:56N 34°37' E 135°15'0 0.0
2017-Nov-14 17:26N 34°37' E 135°15'0 0.1
2017-Nov-14 16:56N 34°37' E 135°15'0 0.1
2017-Nov-14 16:26N 34°37' E 135°15'0 0.1
2017-Nov-14 15:50N 34°37' E 135°15'0 0.0
2017-Nov-14 15:26N 34°37' E 135°15'0 0.0
2017-Nov-14 14:56N 34°37' E 135°15'0 0.0
2017-Nov-14 14:26N 34°37' E 135°15'0 0.0
2017-Nov-14 13:56N 34°37' E 135°15'0 0.0
2017-Nov-14 13:26N 34°37' E 135°15'0 0.1
2017-Nov-14 12:56N 34°37' E 135°15'0 0.0
2017-Nov-14 12:26N 34°37' E 135°15'0 0.1
2017-Nov-14 11:38N 34°37' E 135°15'0 0.0
2017-Nov-14 11:20N 34°37' E 135°15'0 0.0
2017-Nov-14 10:56N 34°37' E 135°15'0 0.0
2017-Nov-14 10:26N 34°37' E 135°15'0 0.0
2017-Nov-14 09:50N 34°37' E 135°15'0 0.0
2017-Nov-14 09:26N 34°37' E 135°15'0 0.0
2017-Nov-14 08:50N 34°37' E 135°15'0 0.1
2017-Nov-14 08:15N 34°37' E 135°15'0 0.7
2017-Nov-14 08:00N 34°37' E 135°15'5 9.1
2017-Nov-14 07:30N 34°33' E 135°14'713.5
2017-Nov-14 07:00N 34°27' E 135°09'914.7
2017-Nov-14 06:22N 34°20' E 135°02'514.4
2017-Nov-14 06:00N 34°15' E 134°59'715.0
2017-Nov-14 05:30N 34°08' E 134°59'252 9.1
2017-Nov-13 01:56N 35°35' E 139°47'0 0.0
2017-Nov-13 01:26N 35°35' E 139°47'0 0.0
2017-Nov-13 00:50N 35°35' E 139°47'0 0.0
2017-Nov-13 00:26N 35°35' E 139°47'0 0.0
2017-Nov-12 23:56N 35°35' E 139°47'0 0.0
2017-Nov-12 23:26N 35°35' E 139°47'0 0.0
2017-Nov-12 23:00N 35°35' E 139°47'1 2.4
2017-Nov-12 22:30N 35°35' E 139°48'4 8.5
2017-Nov-12 22:00N 35°32' E 139°52'4 8.6
2017-Nov-12 21:30N 35°28' E 139°51'5 9.6
2017-Nov-12 21:00N 35°25' E 139°47'611.7
2017-Nov-12 20:30N 35°19' E 139°44'510.5
2017-Nov-12 20:00N 35°14' E 139°47'611.0
2017-Nov-12 19:30N 35°09' E 139°47'611.4
2017-Nov-12 19:00N 35°04' E 139°44'612.6
2017-Nov-12 18:30N 34°58' E 139°41'713.2
2017-Nov-12 18:00N 34°52' E 139°38'  

Dump ship's entire track history